Witham, United Kingdom
Current Conditions -  °F | °C
As of 9:50 AM on Saturday 22 Nov 2014 (Local Time) from EGMC Reporting Station
Drizzle Drizzle  
Wind Chill: 55°   Ceiling: 800
Heat Index: 55°   Visibility: 4mi
Dew Point: 54°   Wind: 8mph
Humidity: 94%   Direction: 170°S
Pressure: 29.94"   Gusts: NA
Location:  51.8°N, 0.64°E
Report Text: EGMC 220950Z 17007KT 6000 -DZ OVC008 13/12 Q1014
Loading
Personal Weather Stations






























Interactive Weather Map New forecast layout! Learn more

10-Day Weather Forecast

Advertisements
Track Severe Weather on mobile